createdAt,value
2019-04-30T00:00:08.849Z,95220.06
2019-04-30T00:02:40.174Z,95220.64
2019-04-30T00:05:14.199Z,95214.27
2019-04-30T00:07:41.005Z,95214.19
2019-04-30T00:10:10.800Z,95217.22
2019-04-30T00:12:40.345Z,95214.94
2019-04-30T00:15:10.901Z,95213.78
2019-04-30T00:17:41.111Z,95208.78
2019-04-30T00:20:11.790Z,95209.88
2019-04-30T00:22:47.155Z,95208.84
2019-04-30T00:25:12.620Z,95208.78
2019-04-30T00:27:42.102Z,95212.41
2019-04-30T00:30:12.029Z,95206.80
2019-04-30T00:32:43.588Z,95209.13
2019-04-30T00:35:18.125Z,95206.80
2019-04-30T00:37:44.980Z,95188.37
2019-04-30T00:40:15.475Z,95187.34
2019-04-30T00:42:45.780Z,95198.36
2019-04-30T00:45:15.570Z,95189.12
2019-04-30T00:47:47.912Z,95182.69
2019-04-30T00:50:17.355Z,95179.19
2019-04-30T00:52:46.833Z,95170.15
2019-04-30T00:55:16.312Z,95172.55
2019-04-30T00:57:47.384Z,95174.88
2019-04-30T01:00:25.318Z,95181.72
2019-04-30T01:03:05.883Z,95173.30
2019-04-30T01:05:35.317Z,95169.67
2019-04-30T01:08:07.037Z,95168.22
2019-04-30T01:10:36.414Z,95169.86
2019-04-30T01:13:08.266Z,95169.24
2019-04-30T01:15:39.061Z,95172.90
2019-04-30T01:18:09.350Z,95171.38
2019-04-30T01:20:40.676Z,95170.82
2019-04-30T01:23:12.022Z,95160.02
2019-04-30T01:25:43.272Z,95160.69
2019-04-30T01:28:16.435Z,95162.19
2019-04-30T01:30:44.159Z,95157.33
2019-04-30T01:33:13.651Z,95139.73
2019-04-30T01:35:43.131Z,95128.38
2019-04-30T01:38:12.926Z,95122.75
2019-04-30T01:40:47.528Z,95125.50
2019-04-30T01:43:14.947Z,95121.92
2019-04-30T01:45:44.411Z,95117.73
2019-04-30T01:48:13.955Z,95115.88
2019-04-30T01:50:43.448Z,95113.00
2019-04-30T01:53:13.326Z,95114.19
2019-04-30T01:55:53.533Z,95114.73
2019-04-30T01:58:33.366Z,95114.11
2019-04-30T02:01:09.011Z,95112.06
2019-04-30T02:03:40.068Z,95104.41
2019-04-30T02:06:11.574Z,95109.73
2019-04-30T02:08:40.815Z,95115.37
2019-04-30T02:11:10.304Z,95107.52
2019-04-30T02:13:39.787Z,95105.70
2019-04-30T02:16:09.358Z,95112.53
2019-04-30T02:18:39.392Z,95103.78
2019-04-30T02:21:11.461Z,95103.42
2019-04-30T02:23:40.213Z,95105.27
2019-04-30T02:26:09.725Z,95109.13
2019-04-30T02:28:39.409Z,95108.35
2019-04-30T02:31:09.277Z,95107.02
2019-04-30T02:33:40.658Z,95103.50
2019-04-30T02:36:24.965Z,95104.88
2019-04-30T02:38:56.329Z,95105.22
2019-04-30T02:41:26.338Z,95101.91
2019-04-30T02:43:59.849Z,95100.45
2019-04-30T02:46:32.286Z,95105.11
2019-04-30T02:49:02.245Z,95102.94
2019-04-30T02:51:32.839Z,95103.22
2019-04-30T02:54:16.059Z,95098.69
2019-04-30T02:56:50.448Z,95100.97
2019-04-30T02:59:20.244Z,95100.92
2019-04-30T03:01:50.352Z,95093.18
2019-04-30T03:04:19.966Z,95095.69
2019-04-30T03:06:50.225Z,95089.66
2019-04-30T03:09:21.327Z,95099.31
2019-04-30T03:11:50.843Z,95095.30
2019-04-30T03:14:20.480Z,95091.70
2019-04-30T03:16:54.281Z,95096.11
2019-04-30T03:19:25.401Z,95095.69
2019-04-30T03:22:02.517Z,95088.74
2019-04-30T03:24:32.016Z,95083.42
2019-04-30T03:27:01.778Z,95080.82
2019-04-30T03:29:31.260Z,95081.65
2019-04-30T03:32:02.533Z,95092.06
2019-04-30T03:34:33.179Z,95086.31
2019-04-30T03:37:02.942Z,95088.52
2019-04-30T03:39:33.937Z,95084.97
2019-04-30T03:42:03.802Z,95096.12
2019-04-30T03:44:33.286Z,95089.89
2019-04-30T03:47:02.782Z,95092.82
2019-04-30T03:49:32.298Z,95082.47
2019-04-30T03:52:01.761Z,95078.41
2019-04-30T03:54:31.291Z,95087.33
2019-04-30T03:57:01.132Z,95087.77
2019-04-30T03:59:30.751Z,95088.79
2019-04-30T04:02:04.613Z,95088.36
2019-04-30T04:04:35.775Z,95090.13
2019-04-30T04:07:12.560Z,95091.04
2019-04-30T04:09:41.851Z,95091.95
2019-04-30T04:12:24.681Z,95105.00
2019-04-30T04:14:54.218Z,95110.00
2019-04-30T04:17:23.883Z,95107.60
2019-04-30T04:19:53.368Z,95105.63
2019-04-30T04:22:22.855Z,95105.63
2019-04-30T04:24:52.386Z,95109.45
2019-04-30T04:27:21.894Z,95111.11
2019-04-30T04:29:51.769Z,95112.41
2019-04-30T04:32:24.364Z,95111.30
2019-04-30T04:34:52.481Z,95117.73
2019-04-30T04:37:22.012Z,95112.34
2019-04-30T04:39:51.539Z,95112.25
2019-04-30T04:42:21.023Z,95117.41
2019-04-30T04:44:50.623Z,95120.89
2019-04-30T04:47:20.484Z,95121.88
2019-04-30T04:49:53.563Z,95117.34
2019-04-30T04:52:22.017Z,95125.63
2019-04-30T04:54:51.761Z,95133.63
2019-04-30T04:57:22.997Z,95132.41
2019-04-30T04:59:52.702Z,95131.49
2019-04-30T05:02:26.826Z,95135.44
2019-04-30T05:04:56.820Z,95135.05
2019-04-30T05:07:26.300Z,95136.63
2019-04-30T05:09:55.790Z,95137.34
2019-04-30T05:12:25.287Z,95133.19
2019-04-30T05:14:54.778Z,95122.11
2019-04-30T05:17:24.265Z,95123.92
2019-04-30T05:19:53.749Z,95124.80
2019-04-30T05:22:23.245Z,95125.89
2019-04-30T05:24:53.981Z,95118.41
2019-04-30T05:27:23.454Z,95120.92
2019-04-30T05:29:52.936Z,95126.69
2019-04-30T05:32:22.428Z,95121.24
2019-04-30T05:34:51.903Z,95119.11
2019-04-30T05:37:22.667Z,95118.87
2019-04-30T05:39:52.110Z,95121.84
2019-04-30T05:42:21.607Z,95121.71
2019-04-30T05:44:51.094Z,95129.64
2019-04-30T05:47:20.579Z,95125.34
2019-04-30T05:49:51.364Z,95120.18
2019-04-30T05:52:20.834Z,95107.78
2019-04-30T05:54:51.828Z,95114.02
2019-04-30T05:57:21.298Z,95112.08
2019-04-30T05:59:50.782Z,95110.78
2019-04-30T06:02:20.270Z,95121.63
2019-04-30T06:04:49.920Z,95120.64
2019-04-30T06:07:19.519Z,95118.00
2019-04-30T06:09:52.808Z,95123.16
2019-04-30T06:12:23.994Z,95123.03
2019-04-30T06:14:55.127Z,95130.69
2019-04-30T06:17:29.403Z,95133.73
2019-04-30T06:20:00.195Z,95132.70
2019-04-30T06:22:29.770Z,95144.81
2019-04-30T06:24:59.527Z,95140.06
2019-04-30T06:27:29.253Z,95142.47
2019-04-30T06:29:58.805Z,95143.61
2019-04-30T06:32:29.522Z,95146.29
2019-04-30T06:34:59.361Z,95150.35
2019-04-30T06:37:31.570Z,95140.41
2019-04-30T06:40:00.659Z,95152.72
2019-04-30T06:42:30.383Z,95144.55
2019-04-30T06:45:00.132Z,95150.78
2019-04-30T06:47:33.279Z,95155.88
2019-04-30T06:50:01.538Z,95160.25
2019-04-30T06:52:30.999Z,95155.79
2019-04-30T06:55:00.523Z,95158.47
2019-04-30T06:57:29.996Z,95157.92
2019-04-30T07:00:00.013Z,95158.47
2019-04-30T07:02:30.901Z,95154.88
2019-04-30T07:05:00.464Z,95161.40
2019-04-30T07:07:37.002Z,95158.79
2019-04-30T07:10:03.459Z,95156.61
2019-04-30T07:12:40.345Z,95160.33
2019-04-30T07:15:09.899Z,95156.19
2019-04-30T07:17:40.676Z,95154.57
2019-04-30T07:20:10.539Z,95158.67
2019-04-30T07:22:49.000Z,95157.77
2019-04-30T07:25:11.703Z,95162.70
2019-04-30T07:27:41.229Z,95155.36
2019-04-30T07:30:10.878Z,95155.43
2019-04-30T07:32:41.504Z,95166.33
2019-04-30T07:35:11.086Z,95164.03
2019-04-30T07:37:40.625Z,95166.00
2019-04-30T07:40:10.214Z,95166.95
2019-04-30T07:42:44.893Z,95167.58
2019-04-30T07:45:11.981Z,95163.39
2019-04-30T07:47:41.512Z,95165.22
2019-04-30T07:50:11.681Z,95176.92
2019-04-30T07:52:58.165Z,95171.55
2019-04-30T07:55:13.429Z,95174.69
2019-04-30T07:57:42.963Z,95180.48
2019-04-30T08:00:12.803Z,95187.36
2019-04-30T08:02:43.976Z,95185.10
2019-04-30T08:05:15.382Z,95189.33
2019-04-30T08:07:44.949Z,95197.26
2019-04-30T08:10:14.701Z,95193.61
2019-04-30T08:12:45.071Z,95206.16
2019-04-30T08:15:14.992Z,95197.77
2019-04-30T08:17:44.752Z,95203.65
2019-04-30T08:20:15.918Z,95203.22
2019-04-30T08:22:45.739Z,95203.27
2019-04-30T08:25:15.203Z,95198.05
2019-04-30T08:27:44.757Z,95194.70
2019-04-30T08:30:23.955Z,95200.09
2019-04-30T08:32:46.059Z,95194.84
2019-04-30T08:35:15.604Z,95191.09
2019-04-30T08:37:45.421Z,95190.27
2019-04-30T08:40:15.087Z,95193.55
2019-04-30T08:42:44.717Z,95189.86
2019-04-30T08:45:14.546Z,95185.21
2019-04-30T08:47:44.159Z,95188.61
2019-04-30T08:50:14.332Z,95184.64
2019-04-30T08:52:44.189Z,95188.14
2019-04-30T08:55:17.170Z,95186.30
2019-04-30T08:57:46.951Z,95181.61
2019-04-30T09:00:19.537Z,95186.00
2019-04-30T09:02:49.471Z,95179.92
2019-04-30T09:05:20.678Z,95190.43
2019-04-30T09:07:50.254Z,95199.77
2019-04-30T09:10:19.812Z,95202.03
2019-04-30T09:12:51.890Z,95199.33
2019-04-30T09:15:20.850Z,95207.13
2019-04-30T09:18:00.774Z,95207.47
2019-04-30T09:20:21.670Z,95207.73
2019-04-30T09:22:51.169Z,95204.73
2019-04-30T09:25:20.646Z,95199.10
2019-04-30T09:27:50.156Z,95193.28
2019-04-30T09:30:19.729Z,95199.52
2019-04-30T09:32:49.965Z,95195.91
2019-04-30T09:35:19.735Z,95201.17
2019-04-30T09:37:50.862Z,95196.77
2019-04-30T09:40:21.171Z,95196.43
2019-04-30T09:42:50.859Z,95199.42
2019-04-30T09:45:20.480Z,95204.34
2019-04-30T09:47:50.550Z,95196.48
2019-04-30T09:50:20.326Z,95193.79
2019-04-30T09:52:50.529Z,95200.74
2019-04-30T09:55:20.117Z,95201.03
2019-04-30T09:57:49.996Z,95199.80
2019-04-30T10:00:20.039Z,95190.28
2019-04-30T10:02:49.578Z,95201.23
2019-04-30T10:05:20.305Z,95193.58
2019-04-30T10:07:50.178Z,95197.32
2019-04-30T10:10:21.544Z,95194.46
2019-04-30T10:12:51.094Z,95187.68
2019-04-30T10:15:25.012Z,95193.20
2019-04-30T10:17:54.513Z,95191.80
2019-04-30T10:20:39.935Z,95190.38
2019-04-30T10:23:09.593Z,95191.50
2019-04-30T10:25:39.609Z,95189.75
2019-04-30T10:28:09.972Z,95197.25
2019-04-30T10:30:39.758Z,95196.11
2019-04-30T10:33:09.992Z,95190.38
2019-04-30T10:35:39.681Z,95196.20
2019-04-30T10:38:09.856Z,95190.77
2019-04-30T10:40:39.605Z,95177.11
2019-04-30T10:43:09.222Z,95187.62
2019-04-30T10:45:39.211Z,95190.31
2019-04-30T10:48:08.845Z,95191.80
2019-04-30T10:50:40.722Z,95183.52
2019-04-30T10:53:12.247Z,95187.44
2019-04-30T10:55:40.796Z,95186.66
2019-04-30T10:58:10.314Z,95182.91
2019-04-30T11:00:41.931Z,95184.34
2019-04-30T11:03:19.946Z,95182.25
2019-04-30T11:05:42.906Z,95189.84
2019-04-30T11:08:12.371Z,95183.34
2019-04-30T11:10:41.868Z,95184.83
2019-04-30T11:13:11.413Z,95183.81
2019-04-30T11:15:40.908Z,95184.87
2019-04-30T11:18:10.663Z,95184.25
2019-04-30T11:20:40.282Z,95181.77
2019-04-30T11:23:14.733Z,95181.94
2019-04-30T11:25:42.199Z,95186.27
2019-04-30T11:28:12.699Z,95184.34
2019-04-30T11:30:43.165Z,95184.84
2019-04-30T11:33:13.161Z,95186.48
2019-04-30T11:35:43.009Z,95177.45
2019-04-30T11:38:12.509Z,95178.78
2019-04-30T11:40:41.969Z,95176.34
2019-04-30T11:43:11.533Z,95167.66
2019-04-30T11:46:00.037Z,95157.45
2019-04-30T11:48:28.970Z,95169.64
2019-04-30T11:50:59.528Z,95156.19
2019-04-30T11:53:30.728Z,95160.55
2019-04-30T11:56:00.297Z,95158.16
2019-04-30T11:58:30.551Z,95156.56
2019-04-30T12:01:00.572Z,95155.72
2019-04-30T12:03:30.356Z,95159.53
2019-04-30T12:05:59.911Z,95151.93
2019-04-30T12:08:31.073Z,95160.16
2019-04-30T12:11:03.251Z,95156.44
2019-04-30T12:13:32.912Z,95155.46
2019-04-30T12:16:02.910Z,95148.91
2019-04-30T12:18:32.516Z,95147.92
2019-04-30T12:21:02.056Z,95151.70
2019-04-30T12:23:31.549Z,95145.48
2019-04-30T12:26:02.845Z,95136.58
2019-04-30T12:28:32.266Z,95129.16
2019-04-30T12:31:01.743Z,95124.41
2019-04-30T12:33:31.233Z,95129.53
2019-04-30T12:36:00.713Z,95126.94
2019-04-30T12:38:30.311Z,95127.77
2019-04-30T12:40:59.799Z,95140.20
2019-04-30T12:43:29.298Z,95136.68
2019-04-30T12:46:03.350Z,95140.83
2019-04-30T12:48:36.119Z,95142.62
2019-04-30T12:51:07.853Z,95151.84
2019-04-30T12:53:50.865Z,95152.82
2019-04-30T12:56:27.831Z,95154.63
2019-04-30T12:58:57.314Z,95159.56
2019-04-30T13:01:29.793Z,95157.59
2019-04-30T13:04:01.364Z,95149.34
2019-04-30T13:06:30.832Z,95141.84
2019-04-30T13:09:01.291Z,95142.77
2019-04-30T13:11:32.005Z,95136.16
2019-04-30T13:14:02.221Z,95137.25
2019-04-30T13:16:31.965Z,95130.11
2019-04-30T13:19:02.142Z,95133.96
2019-04-30T13:21:31.617Z,95132.84
2019-04-30T13:24:01.118Z,95130.16
2019-04-30T13:26:30.613Z,95117.39
2019-04-30T13:29:01.774Z,95132.30
2019-04-30T13:31:31.257Z,95132.55
2019-04-30T13:34:15.171Z,95125.66
2019-04-30T13:36:44.635Z,95118.49
2019-04-30T13:39:26.892Z,95117.70
2019-04-30T13:42:00.395Z,95122.30
2019-04-30T13:44:31.534Z,95125.37
2019-04-30T13:47:01.021Z,95126.56
2019-04-30T13:49:30.511Z,95111.91
2019-04-30T13:52:00.001Z,95109.97
2019-04-30T13:54:29.508Z,95111.78
2019-04-30T13:56:59.169Z,95112.10
2019-04-30T13:59:28.664Z,95110.34
2019-04-30T14:01:58.797Z,95108.70
2019-04-30T14:04:35.470Z,95102.15
2019-04-30T14:07:06.587Z,95100.75
2019-04-30T14:09:36.071Z,95096.18
2019-04-30T14:12:05.713Z,95099.90
2019-04-30T14:14:35.261Z,95087.82
2019-04-30T14:17:04.830Z,95089.92
2019-04-30T14:19:34.319Z,95096.66
2019-04-30T14:22:04.397Z,95094.42
2019-04-30T14:24:33.879Z,95089.14
2019-04-30T14:27:03.442Z,95090.02
2019-04-30T14:29:32.936Z,95089.73
2019-04-30T14:32:02.448Z,95092.64
2019-04-30T14:34:31.943Z,95095.86
2019-04-30T14:37:01.509Z,95092.66
2019-04-30T14:39:31.216Z,95098.75
2019-04-30T14:42:01.622Z,95095.13
2019-04-30T14:44:33.865Z,95094.07
2019-04-30T14:47:12.630Z,95095.03
2019-04-30T14:50:04.899Z,95092.23
2019-04-30T14:52:32.719Z,95093.89
2019-04-30T14:55:13.919Z,95097.75
2019-04-30T14:57:43.187Z,95098.45
2019-04-30T15:00:32.019Z,95092.59
2019-04-30T15:03:05.873Z,95095.75
2019-04-30T15:05:40.605Z,95090.95
2019-04-30T15:08:08.491Z,95091.58
2019-04-30T15:10:38.149Z,95095.60
2019-04-30T15:13:09.593Z,95089.14
2019-04-30T15:15:39.226Z,95095.16
2019-04-30T15:18:09.312Z,95078.70
2019-04-30T15:20:39.828Z,95085.21
2019-04-30T15:23:18.899Z,95087.00
2019-04-30T15:25:42.441Z,95087.95
2019-04-30T15:28:11.929Z,95091.80
2019-04-30T15:30:42.135Z,95092.22
2019-04-30T15:33:29.385Z,95089.75
2019-04-30T15:35:59.917Z,95091.56
2019-04-30T15:38:47.214Z,95094.50
2019-04-30T15:41:16.900Z,95089.30
2019-04-30T15:43:47.468Z,95090.70
2019-04-30T15:46:16.962Z,95094.28
2019-04-30T15:48:46.489Z,95097.80
2019-04-30T15:51:15.998Z,95097.73
2019-04-30T15:53:45.504Z,95092.43
2019-04-30T15:56:15.838Z,95089.79
2019-04-30T15:59:03.042Z,95089.27
2019-04-30T16:01:32.622Z,95093.73
2019-04-30T16:04:02.742Z,95094.54
2019-04-30T16:06:32.267Z,95097.28
2019-04-30T16:09:03.397Z,95095.33
2019-04-30T16:11:46.397Z,95087.04
2019-04-30T16:14:23.180Z,95092.21
2019-04-30T16:16:57.069Z,95090.55
2019-04-30T16:19:28.711Z,95098.55
2019-04-30T16:21:57.952Z,95093.23
2019-04-30T16:24:28.711Z,95100.58
2019-04-30T16:26:59.387Z,95093.42
2019-04-30T16:29:29.026Z,95093.34
2019-04-30T16:31:59.147Z,95091.54
2019-04-30T16:34:30.498Z,95087.06
2019-04-30T16:37:00.241Z,95087.64
2019-04-30T16:39:29.764Z,95084.19
2019-04-30T16:41:59.375Z,95087.07
2019-04-30T16:44:28.930Z,95084.53
2019-04-30T16:46:59.662Z,95081.03
2019-04-30T16:49:29.204Z,95079.83
2019-04-30T16:52:01.363Z,95083.31
2019-04-30T16:54:30.857Z,95077.44
2019-04-30T16:57:05.950Z,95083.36
2019-04-30T16:59:33.325Z,95077.67
2019-04-30T17:02:02.996Z,95080.98
2019-04-30T17:04:34.186Z,95081.05
2019-04-30T17:07:21.216Z,95076.84
2019-04-30T17:09:52.362Z,95073.89
2019-04-30T17:12:39.126Z,95075.42
2019-04-30T17:15:26.438Z,95074.17
2019-04-30T17:17:55.923Z,95075.54
2019-04-30T17:20:28.601Z,95076.02
2019-04-30T17:22:59.597Z,95069.95
2019-04-30T17:25:28.916Z,95067.07
2019-04-30T17:27:58.890Z,95066.73
2019-04-30T17:30:29.622Z,95075.20
2019-04-30T17:32:59.724Z,95076.37
2019-04-30T17:35:29.524Z,95074.64
2019-04-30T17:37:59.067Z,95078.20
2019-04-30T17:40:29.163Z,95079.47
2019-04-30T17:42:58.769Z,95083.15
2019-04-30T17:45:29.200Z,95080.83
2019-04-30T17:47:58.712Z,95082.13
2019-04-30T17:50:29.607Z,95078.55
2019-04-30T17:53:00.714Z,95088.21
2019-04-30T17:55:30.228Z,95094.00
2019-04-30T17:57:59.742Z,95093.79
2019-04-30T18:00:30.939Z,95094.92
2019-04-30T18:03:00.884Z,95096.44
2019-04-30T18:05:30.367Z,95099.23
2019-04-30T18:07:59.927Z,95098.73
2019-04-30T18:10:29.572Z,95107.11
2019-04-30T18:12:59.099Z,95100.19
2019-04-30T18:15:31.007Z,95107.58
2019-04-30T18:18:17.973Z,95106.14
2019-04-30T18:20:53.089Z,95104.33
2019-04-30T18:23:24.207Z,95108.94
2019-04-30T18:25:58.033Z,95108.59
2019-04-30T18:28:29.144Z,95115.00
2019-04-30T18:30:59.093Z,95116.64
2019-04-30T18:33:28.603Z,95111.06
2019-04-30T18:35:59.677Z,95111.73
2019-04-30T18:38:31.125Z,95114.02
2019-04-30T18:41:00.557Z,95118.45
2019-04-30T18:43:31.191Z,95121.89
2019-04-30T18:46:00.815Z,95123.36
2019-04-30T18:48:30.345Z,95125.48
2019-04-30T18:50:59.833Z,95119.09
2019-04-30T18:53:31.004Z,95132.87
2019-04-30T18:56:00.502Z,95125.98
2019-04-30T18:58:39.202Z,95135.16
2019-04-30T19:01:01.275Z,95140.23
2019-04-30T19:03:30.767Z,95139.26
2019-04-30T19:06:01.883Z,95137.45
2019-04-30T19:08:39.471Z,95136.80
2019-04-30T19:11:22.662Z,95145.77
2019-04-30T19:13:56.420Z,95145.63
2019-04-30T19:16:27.634Z,95144.48
2019-04-30T19:18:56.894Z,95146.77
2019-04-30T19:21:26.889Z,95154.96
2019-04-30T19:23:58.581Z,95158.05
2019-04-30T19:26:29.316Z,95152.97
2019-04-30T19:28:58.856Z,95157.86
2019-04-30T19:31:29.601Z,95159.68
2019-04-30T19:33:59.172Z,95171.69
2019-04-30T19:36:37.257Z,95171.02
2019-04-30T19:39:01.182Z,95174.54
2019-04-30T19:41:30.660Z,95174.72
2019-04-30T19:44:00.169Z,95168.95
2019-04-30T19:46:29.651Z,95170.44
2019-04-30T19:48:59.978Z,95168.20
2019-04-30T19:51:29.678Z,95173.37
2019-04-30T19:53:59.856Z,95176.39
2019-04-30T19:56:32.515Z,95175.10
2019-04-30T19:59:05.149Z,95173.42
2019-04-30T20:01:32.104Z,95174.27
2019-04-30T20:04:01.679Z,95173.91
2019-04-30T20:06:31.154Z,95177.87
2019-04-30T20:09:00.878Z,95176.03
2019-04-30T20:11:30.342Z,95179.34
2019-04-30T20:13:59.835Z,95186.42
2019-04-30T20:16:29.365Z,95187.37
2019-04-30T20:18:59.260Z,95189.97
2019-04-30T20:21:45.375Z,95191.93
2019-04-30T20:24:00.293Z,95188.56
2019-04-30T20:26:29.817Z,95192.56
2019-04-30T20:28:59.304Z,95188.30
2019-04-30T20:31:28.901Z,95189.56
2019-04-30T20:33:59.124Z,95192.68
2019-04-30T20:36:29.564Z,95189.41
2019-04-30T20:38:58.821Z,95185.14
2019-04-30T20:41:29.466Z,95189.84
2019-04-30T20:43:59.222Z,95184.93
2019-04-30T20:46:32.624Z,95189.84
2019-04-30T20:48:59.915Z,95191.13
2019-04-30T20:51:29.440Z,95186.02
2019-04-30T20:53:59.263Z,95188.45
2019-04-30T20:56:29.204Z,95182.20
2019-04-30T20:59:04.146Z,95178.33
2019-04-30T21:01:30.348Z,95175.48
2019-04-30T21:03:59.980Z,95181.09
2019-04-30T21:06:29.805Z,95172.68
2019-04-30T21:08:59.330Z,95169.22
2019-04-30T21:11:28.834Z,95170.22
2019-04-30T21:13:59.122Z,95170.82
2019-04-30T21:16:29.145Z,95175.72
2019-04-30T21:18:58.764Z,95169.50
2019-04-30T21:21:28.804Z,95168.46
2019-04-30T21:23:58.816Z,95175.31
2019-04-30T21:26:28.304Z,95174.66
2019-04-30T21:29:10.428Z,95172.35
2019-04-30T21:31:36.426Z,95168.64
2019-04-30T21:34:10.402Z,95161.86
2019-04-30T21:36:39.851Z,95163.34
2019-04-30T21:39:09.351Z,95159.59
2019-04-30T21:41:39.558Z,95162.82
2019-04-30T21:44:09.072Z,95155.86
2019-04-30T21:46:39.512Z,95156.17
2019-04-30T21:49:09.030Z,95159.27
2019-04-30T21:51:40.099Z,95156.56
2019-04-30T21:54:09.651Z,95161.66
2019-04-30T21:56:39.170Z,95161.89
2019-04-30T21:59:08.657Z,95156.11
2019-04-30T22:01:38.353Z,95156.34
2019-04-30T22:04:07.818Z,95153.61
2019-04-30T22:06:39.360Z,95154.15
2019-04-30T22:09:09.853Z,95150.12
2019-04-30T22:11:39.604Z,95150.45
2019-04-30T22:14:09.249Z,95124.73
2019-04-30T22:16:39.765Z,95144.59
2019-04-30T22:19:09.981Z,95144.09
2019-04-30T22:21:39.741Z,95144.58
2019-04-30T22:24:09.251Z,95136.95
2019-04-30T22:26:38.733Z,95139.63
2019-04-30T22:29:09.194Z,95143.14
2019-04-30T22:31:39.627Z,95140.96
2019-04-30T22:34:09.217Z,95142.61
2019-04-30T22:36:40.318Z,95138.34
2019-04-30T22:39:12.245Z,95148.98
2019-04-30T22:41:41.718Z,95145.55
2019-04-30T22:44:11.303Z,95136.70
2019-04-30T22:46:40.778Z,95138.80
2019-04-30T22:49:10.267Z,95140.14
2019-04-30T22:51:39.769Z,95133.26
2019-04-30T22:54:09.244Z,95136.95
2019-04-30T22:56:38.735Z,95141.83
2019-04-30T22:59:08.247Z,95132.03
2019-04-30T23:01:37.498Z,95133.61
2019-04-30T23:04:08.673Z,95131.99
2019-04-30T23:06:38.153Z,95127.77
2019-04-30T23:09:11.223Z,95128.93
2019-04-30T23:11:40.874Z,95128.38
2019-04-30T23:14:10.366Z,95125.45
2019-04-30T23:16:39.887Z,95125.77
2019-04-30T23:19:09.402Z,95123.87
2019-04-30T23:21:39.308Z,95126.39
2019-04-30T23:24:08.823Z,95118.06
2019-04-30T23:26:38.578Z,95118.85
2019-04-30T23:29:08.061Z,95120.95
2019-04-30T23:31:37.569Z,95115.89
2019-04-30T23:34:17.417Z,95116.03
2019-04-30T23:36:38.329Z,95112.72
2019-04-30T23:39:09.686Z,95114.38
2019-04-30T23:41:39.167Z,95107.33
2019-04-30T23:44:08.641Z,95111.83
2019-04-30T23:46:38.150Z,95104.94
2019-04-30T23:49:07.620Z,95108.91
2019-04-30T23:51:37.169Z,95112.11
2019-04-30T23:54:06.699Z,95108.94
2019-04-30T23:56:36.215Z,95110.16
2019-04-30T23:59:05.803Z,95108.59
